sensor_id;sensor_type;location;lat;lon;timestamp;pressure;altitude;pressure_sealevel;temperature;humidity
29467;BME280;60968;37.490;-122.288;2023-02-04T00:02:39;99482.53;;;10.23;100.00
29467;BME280;60968;37.490;-122.288;2023-02-04T00:05:40;99479.13;;;10.12;100.00
29467;BME280;60968;37.490;-122.288;2023-02-04T00:08:41;99485.19;;;10.11;100.00
29467;BME280;60968;37.490;-122.288;2023-02-04T00:11:42;99484.34;;;10.10;100.00
29467;BME280;60968;37.490;-122.288;2023-02-04T00:14:43;99480.91;;;10.08;100.00
29467;BME280;60968;37.490;-122.288;2023-02-04T00:17:44;99480.88;;;10.11;100.00
29467;BME280;60968;37.490;-122.288;2023-02-04T00:20:45;99477.41;;;10.06;100.00
29467;BME280;60968;37.490;-122.288;2023-02-04T00:27:24;99478.34;;;9.96;100.00
29467;BME280;60968;37.490;-122.288;2023-02-04T00:30:25;99476.63;;;9.89;100.00
29467;BME280;60968;37.490;-122.288;2023-02-04T00:33:26;99478.38;;;9.85;100.00
29467;BME280;60968;37.490;-122.288;2023-02-04T00:36:27;99471.41;;;9.86;100.00
29467;BME280;60968;37.490;-122.288;2023-02-04T00:39:28;99473.16;;;9.87;100.00
29467;BME280;60968;37.490;-122.288;2023-02-04T00:42:29;99472.31;;;9.85;100.00
29467;BME280;60968;37.490;-122.288;2023-02-04T00:45:30;99478.38;;;9.84;100.00
29467;BME280;60968;37.490;-122.288;2023-02-04T00:48:31;99472.31;;;9.80;100.00
29467;BME280;60968;37.490;-122.288;2023-02-04T00:51:33;99472.31;;;9.80;100.00
29467;BME280;60968;37.490;-122.288;2023-02-04T00:54:34;99471.47;;;9.79;100.00
29467;BME280;60968;37.490;-122.288;2023-02-04T00:57:35;99466.25;;;9.83;100.00
29467;BME280;60968;37.490;-122.288;2023-02-04T01:00:36;99462.78;;;9.82;100.00
29467;BME280;60968;37.490;-122.288;2023-02-04T01:03:37;99464.53;;;9.77;100.00
29467;BME280;60968;37.490;-122.288;2023-02-04T01:06:38;99474.94;;;9.74;100.00
29467;BME280;60968;37.490;-122.288;2023-02-04T01:09:39;99474.97;;;9.69;100.00
29467;BME280;60968;37.490;-122.288;2023-02-04T01:12:40;99475.00;;;9.66;100.00
29467;BME280;60968;37.490;-122.288;2023-02-04T01:15:40;99468.03;;;9.68;100.00
29467;BME280;60968;37.490;-122.288;2023-02-04T01:18:41;99476.72;;;9.66;100.00
29467;BME280;60968;37.490;-122.288;2023-02-04T01:21:42;99478.44;;;9.67;100.00
29467;BME280;60968;37.490;-122.288;2023-02-04T01:24:43;99481.91;;;9.67;100.00
29467;BME280;60968;37.490;-122.288;2023-02-04T01:27:44;99484.50;;;9.72;100.00
29467;BME280;60968;37.490;-122.288;2023-02-04T01:30:45;99487.97;;;9.72;100.00
29467;BME280;60968;37.490;-122.288;2023-02-04T01:33:46;99481.88;;;9.78;100.00
29467;BME280;60968;37.490;-122.288;2023-02-04T01:36:47;99481.91;;;9.75;100.00
29467;BME280;60968;37.490;-122.288;2023-02-04T01:39:47;99483.59;;;9.74;100.00
29467;BME280;60968;37.490;-122.288;2023-02-04T01:42:49;99485.38;;;9.72;100.00
29467;BME280;60968;37.490;-122.288;2023-02-04T01:45:50;99481.03;;;9.70;100.00
29467;BME280;60968;37.490;-122.288;2023-02-04T01:48:51;99483.66;;;9.64;100.00
29467;BME280;60968;37.490;-122.288;2023-02-04T01:51:52;99476.72;;;9.63;100.00
29467;BME280;60968;37.490;-122.288;2023-02-04T01:54:53;99481.91;;;9.64;100.00
29467;BME280;60968;37.490;-122.288;2023-02-04T01:57:54;99469.78;;;9.63;100.00
29467;BME280;60968;37.490;-122.288;2023-02-04T02:00:55;99468.94;;;9.58;100.00
29467;BME280;60968;37.490;-122.288;2023-02-04T02:03:56;99468.94;;;9.56;100.00
29467;BME280;60968;37.490;-122.288;2023-02-04T02:07:01;99473.28;;;9.54;100.00
29467;BME280;60968;37.490;-122.288;2023-02-04T02:10:04;99470.66;;;9.57;100.00
29467;BME280;60968;37.490;-122.288;2023-02-04T02:13:09;99473.25;;;9.62;100.00
29467;BME280;60968;37.490;-122.288;2023-02-04T02:16:10;99471.50;;;9.64;100.00
29467;BME280;60968;37.490;-122.288;2023-02-04T02:19:15;99482.78;;;9.65;100.00
29467;BME280;60968;37.490;-122.288;2023-02-04T02:22:28;99476.69;;;9.70;100.00
29467;BME280;60968;37.490;-122.288;2023-02-04T02:25:32;99473.22;;;9.73;100.00
29467;BME280;60968;37.490;-122.288;2023-02-04T02:28:33;99477.56;;;9.72;100.00
29467;BME280;60968;37.490;-122.288;2023-02-04T02:31:34;99476.69;;;9.67;100.00
29467;BME280;60968;37.490;-122.288;2023-02-04T02:34:35;99474.97;;;9.61;100.00
29467;BME280;60968;37.490;-122.288;2023-02-04T02:37:37;99476.72;;;9.59;100.00
29467;BME280;60968;37.490;-122.288;2023-02-04T02:40:38;99480.19;;;9.60;100.00
29467;BME280;60968;37.490;-122.288;2023-02-04T02:43:39;99466.31;;;9.61;100.00
29467;BME280;60968;37.490;-122.288;2023-02-04T02:46:40;99464.56;;;9.61;100.00
29467;BME280;60968;37.490;-122.288;2023-02-04T02:49:41;99460.25;;;9.62;100.00
29467;BME280;60968;37.490;-122.288;2023-02-04T02:52:44;99458.53;;;9.59;100.00
29467;BME280;60968;37.490;-122.288;2023-02-04T02:55:45;99462.84;;;9.62;100.00
29467;BME280;60968;37.490;-122.288;2023-02-04T02:58:47;99470.63;;;9.60;100.00
29467;BME280;60968;37.490;-122.288;2023-02-04T03:01:52;99468.94;;;9.56;100.00
29467;BME280;60968;37.490;-122.288;2023-02-04T03:04:55;99460.25;;;9.59;100.00
29467;BME280;60968;37.490;-122.288;2023-02-04T03:07:58;99463.72;;;9.61;100.00
29467;BME280;60968;37.490;-122.288;2023-02-04T03:10:59;99467.19;;;9.61;100.00
29467;BME280;60968;37.490;-122.288;2023-02-04T03:14:01;99468.03;;;9.65;100.00
29467;BME280;60968;37.490;-122.288;2023-02-04T03:17:05;99464.59;;;9.66;100.00
29467;BME280;60968;37.490;-122.288;2023-02-04T03:20:07;99463.69;;;9.69;100.00
29467;BME280;60968;37.490;-122.288;2023-02-04T03:23:09;99461.09;;;9.72;100.00
29467;BME280;60968;37.490;-122.288;2023-02-04T03:26:10;99458.53;;;9.59;100.00
29467;BME280;60968;37.490;-122.288;2023-02-04T03:29:11;99464.63;;;9.54;100.00
29467;BME280;60968;37.490;-122.288;2023-02-04T03:32:12;99450.72;;;9.58;100.00
29467;BME280;60968;37.490;-122.288;2023-02-04T03:35:13;99445.50;;;9.61;100.00
29467;BME280;60968;37.490;-122.288;2023-02-04T03:38:14;99443.75;;;9.63;100.00
29467;BME280;60968;37.490;-122.288;2023-02-04T03:41:15;99441.16;;;9.61;100.00
29467;BME280;60968;37.490;-122.288;2023-02-04T03:44:16;99446.38;;;9.66;100.00
29467;BME280;60968;37.490;-122.288;2023-02-04T03:47:17;99449.84;;;9.64;100.00
29467;BME280;60968;37.490;-122.288;2023-02-04T03:50:17;99448.09;;;9.64;100.00
29467;BME280;60968;37.490;-122.288;2023-02-04T03:53:19;99442.03;;;9.62;100.00
29467;BME280;60968;37.490;-122.288;2023-02-04T03:56:20;99439.41;;;9.60;100.00
29467;BME280;60968;37.490;-122.288;2023-02-04T03:59:22;99445.53;;;9.58;100.00
29467;BME280;60968;37.490;-122.288;2023-02-04T04:02:23;99455.03;;;9.64;100.00
29467;BME280;60968;37.490;-122.288;2023-02-04T04:05:24;99454.13;;;9.77;100.00
29467;BME280;60968;37.490;-122.288;2023-02-04T04:08:25;99449.72;;;9.91;100.00
29467;BME280;60968;37.490;-122.288;2023-02-04T04:11:26;99460.97;;;10.00;100.00
29467;BME280;60968;37.490;-122.288;2023-02-04T04:14:27;99461.84;;;10.00;100.00
29467;BME280;60968;37.490;-122.288;2023-02-04T04:17:28;99456.59;;;10.08;100.00
29467;BME280;60968;37.490;-122.288;2023-02-04T04:20:29;99457.47;;;10.05;100.00
29467;BME280;60968;37.490;-122.288;2023-02-04T04:23:29;99452.25;;;10.05;100.00
29467;BME280;60968;37.490;-122.288;2023-02-04T04:26:30;99457.44;;;10.07;100.00
29467;BME280;60968;37.490;-122.288;2023-02-04T04:29:31;99452.31;;;9.96;100.00
29467;BME280;60968;37.490;-122.288;2023-02-04T04:32:32;99461.00;;;9.95;100.00
29467;BME280;60968;37.490;-122.288;2023-02-04T04:35:33;99454.91;;;9.91;100.00
29467;BME280;60968;37.490;-122.288;2023-02-04T04:38:34;99466.22;;;9.89;100.00
29467;BME280;60968;37.490;-122.288;2023-02-04T04:41:34;99458.41;;;9.84;100.00
29467;BME280;60968;37.490;-122.288;2023-02-04T04:44:35;99451.50;;;9.86;100.00
29467;BME280;60968;37.490;-122.288;2023-02-04T04:47:39;99452.34;;;9.84;100.00
29467;BME280;60968;37.490;-122.288;2023-02-04T04:50:39;99445.41;;;9.84;100.00
29467;BME280;60968;37.490;-122.288;2023-02-04T04:53:40;99451.53;;;9.75;100.00
29467;BME280;60968;37.490;-122.288;2023-02-04T04:56:41;99453.25;;;9.70;100.00
29467;BME280;60968;37.490;-122.288;2023-02-04T04:59:42;99462.84;;;9.67;100.00
29467;BME280;60968;37.490;-122.288;2023-02-04T05:02:43;99466.31;;;9.59;100.00
29467;BME280;60968;37.490;-122.288;2023-02-04T05:05:44;99462.84;;;9.56;100.00
29467;BME280;60968;37.490;-122.288;2023-02-04T05:08:45;99466.31;;;9.55;100.00
29467;BME280;60968;37.490;-122.288;2023-02-04T05:11:45;99458.53;;;9.53;100.00
29467;BME280;60968;37.490;-122.288;2023-02-04T05:14:46;99450.72;;;9.55;100.00
29467;BME280;60968;37.490;-122.288;2023-02-04T05:17:47;99460.25;;;9.54;100.00
29467;BME280;60968;37.490;-122.288;2023-02-04T05:20:48;99455.06;;;9.54;100.00
29467;BME280;60968;37.490;-122.288;2023-02-04T05:23:49;99462.88;;;9.53;100.00
29467;BME280;60968;37.490;-122.288;2023-02-04T05:26:50;99466.34;;;9.49;100.00
29467;BME280;60968;37.490;-122.288;2023-02-04T05:29:51;99468.94;;;9.49;100.00
29467;BME280;60968;37.490;-122.288;2023-02-04T05:32:51;99472.41;;;9.52;100.00
29467;BME280;60968;37.490;-122.288;2023-02-04T05:35:52;99472.44;;;9.51;100.00
29467;BME280;60968;37.490;-122.288;2023-02-04T05:38:53;99468.94;;;9.50;100.00
29467;BME280;60968;37.490;-122.288;2023-02-04T05:41:54;99473.28;;;9.54;100.00
29467;BME280;60968;37.490;-122.288;2023-02-04T05:44:55;99479.31;;;9.55;100.00
29467;BME280;60968;37.490;-122.288;2023-02-04T05:47:56;99471.53;;;9.53;100.00
29467;BME280;60968;37.490;-122.288;2023-02-04T05:50:57;99468.09;;;9.48;100.00
29467;BME280;60968;37.490;-122.288;2023-02-04T05:53:58;99463.75;;;9.39;100.00
29467;BME280;60968;37.490;-122.288;2023-02-04T05:56:58;99476.75;;;9.39;100.00
29467;BME280;60968;37.490;-122.288;2023-02-04T05:59:59;99467.25;;;9.38;100.00
29467;BME280;60968;37.490;-122.288;2023-02-04T06:03:01;99470.69;;;9.45;100.00
29467;BME280;60968;37.490;-122.288;2023-02-04T06:06:01;99465.50;;;9.39;100.00
29467;BME280;60968;37.490;-122.288;2023-02-04T06:09:02;99457.69;;;9.42;100.00
29467;BME280;60968;37.490;-122.288;2023-02-04T06:12:03;99457.69;;;9.47;100.00
29467;BME280;60968;37.490;-122.288;2023-02-04T06:15:05;99455.06;;;9.53;100.00
29467;BME280;60968;37.490;-122.288;2023-02-04T06:18:07;99453.31;;;9.53;100.00
29467;BME280;60968;37.490;-122.288;2023-02-04T06:21:08;99450.72;;;9.52;100.00
29467;BME280;60968;37.490;-122.288;2023-02-04T06:24:09;99446.41;;;9.52;100.00
29467;BME280;60968;37.490;-122.288;2023-02-04T06:27:11;99442.06;;;9.54;100.00
29467;BME280;60968;37.490;-122.288;2023-02-04T06:30:13;99437.72;;;9.53;100.00
29467;BME280;60968;37.490;-122.288;2023-02-04T06:33:14;99435.94;;;9.68;100.00
29467;BME280;60968;37.490;-122.288;2023-02-04T06:36:16;99437.63;;;9.79;100.00
29467;BME280;60968;37.490;-122.288;2023-02-04T06:39:16;99442.81;;;9.84;100.00
29467;BME280;60968;37.490;-122.288;2023-02-04T06:42:17;99447.13;;;9.87;100.00
29467;BME280;60968;37.490;-122.288;2023-02-04T06:45:18;99442.84;;;9.78;100.00
29467;BME280;60968;37.490;-122.288;2023-02-04T06:48:19;99442.88;;;9.73;100.00
29467;BME280;60968;37.490;-122.288;2023-02-04T06:51:20;99440.28;;;9.67;100.00
29467;BME280;60968;37.490;-122.288;2023-02-04T06:54:21;99442.03;;;9.62;100.00
29467;BME280;60968;37.490;-122.288;2023-02-04T06:57:22;99440.31;;;9.58;100.00
29467;BME280;60968;37.490;-122.288;2023-02-04T07:00:23;99440.31;;;9.53;100.00
29467;BME280;60968;37.490;-122.288;2023-02-04T07:03:24;99438.59;;;9.48;100.00
29467;BME280;60968;37.490;-122.288;2023-02-04T07:06:25;99439.47;;;9.42;100.00
29467;BME280;60968;37.490;-122.288;2023-02-04T07:09:25;99431.72;;;9.34;100.00
29467;BME280;60968;37.490;-122.288;2023-02-04T07:12:26;99429.97;;;9.35;100.00
29467;BME280;60968;37.490;-122.288;2023-02-04T07:15:27;99436.88;;;9.43;100.00
29467;BME280;60968;37.490;-122.288;2023-02-04T07:18:29;99450.75;;;9.49;100.00
29467;BME280;60968;37.490;-122.288;2023-02-04T07:21:30;99438.63;;;9.41;100.00
29467;BME280;60968;37.490;-122.288;2023-02-04T07:24:31;99438.63;;;9.44;100.00
29467;BME280;60968;37.490;-122.288;2023-02-04T07:27:32;99437.75;;;9.44;100.00
29467;BME280;60968;37.490;-122.288;2023-02-04T07:30:33;99445.56;;;9.44;100.00
29467;BME280;60968;37.490;-122.288;2023-02-04T07:33:34;99442.06;;;9.42;100.00
29467;BME280;60968;37.490;-122.288;2023-02-04T07:36:35;99441.22;;;9.40;100.00
29467;BME280;60968;37.490;-122.288;2023-02-04T07:39:36;99440.34;;;9.39;100.00
29467;BME280;60968;37.490;-122.288;2023-02-04T07:42:37;99431.69;;;9.40;100.00
29467;BME280;60968;37.490;-122.288;2023-02-04T07:45:38;99436.88;;;9.40;100.00
29467;BME280;60968;37.490;-122.288;2023-02-04T07:48:39;99442.06;;;9.43;100.00
29467;BME280;60968;37.490;-122.288;2023-02-04T07:51:40;99438.63;;;9.44;100.00
29467;BME280;60968;37.490;-122.288;2023-02-04T07:54:42;99442.06;;;9.43;100.00
29467;BME280;60968;37.490;-122.288;2023-02-04T07:57:43;99436.88;;;9.39;100.00
29467;BME280;60968;37.490;-122.288;2023-02-04T08:00:44;99429.97;;;9.41;100.00
29467;BME280;60968;37.490;-122.288;2023-02-04T08:03:44;99427.34;;;9.39;100.00
29467;BME280;60968;37.490;-122.288;2023-02-04T08:06:45;99430.84;;;9.40;100.00
29467;BME280;60968;37.490;-122.288;2023-02-04T08:09:46;99430.84;;;9.40;100.00
29467;BME280;60968;37.490;-122.288;2023-02-04T08:12:47;99421.28;;;9.42;100.00
29467;BME280;60968;37.490;-122.288;2023-02-04T08:15:48;99419.56;;;9.42;100.00
29467;BME280;60968;37.490;-122.288;2023-02-04T08:18:49;99407.44;;;9.40;100.00
29467;BME280;60968;37.490;-122.288;2023-02-04T08:21:49;99416.13;;;9.31;100.00
29467;BME280;60968;37.490;-122.288;2023-02-04T08:24:50;99408.31;;;9.28;100.00
29467;BME280;60968;37.490;-122.288;2023-02-04T08:27:51;99413.50;;;9.26;100.00
29467;BME280;60968;37.490;-122.288;2023-02-04T08:30:52;99404.88;;;9.23;100.00
29467;BME280;60968;37.490;-122.288;2023-02-04T08:33:53;99397.06;;;9.26;100.00
29467;BME280;60968;37.490;-122.288;2023-02-04T08:36:54;99384.06;;;9.26;100.00
29467;BME280;60968;37.490;-122.288;2023-02-04T08:39:55;99394.47;;;9.23;100.00
29467;BME280;60968;37.490;-122.288;2023-02-04T08:42:56;99402.25;;;9.27;100.00
29467;BME280;60968;37.490;-122.288;2023-02-04T08:45:57;99397.94;;;9.30;100.00
29467;BME280;60968;37.490;-122.288;2023-02-04T08:48:58;99398.78;;;9.21;100.00
29467;BME280;60968;37.490;-122.288;2023-02-04T08:51:59;99391.88;;;9.14;100.00
29467;BME280;60968;37.490;-122.288;2023-02-04T08:55:01;99400.56;;;9.16;100.00
29467;BME280;60968;37.490;-122.288;2023-02-04T08:58:02;99396.19;;;9.19;100.00
29467;BME280;60968;37.490;-122.288;2023-02-04T09:01:03;99394.47;;;9.18;100.00
29467;BME280;60968;37.490;-122.288;2023-02-04T09:04:03;99397.94;;;9.20;100.00
29467;BME280;60968;37.490;-122.288;2023-02-04T09:07:04;99389.25;;;9.18;100.00
29467;BME280;60968;37.490;-122.288;2023-02-04T09:10:05;99397.06;;;9.26;100.00
29467;BME280;60968;37.490;-122.288;2023-02-04T09:13:07;99394.47;;;9.21;100.00
29467;BME280;60968;37.490;-122.288;2023-02-04T09:16:10;99391.00;;;9.16;100.00
29467;BME280;60968;37.490;-122.288;2023-02-04T09:19:12;99381.47;;;9.18;100.00
29467;BME280;60968;37.490;-122.288;2023-02-04T09:22:13;99387.56;;;9.14;100.00
29467;BME280;60968;37.490;-122.288;2023-02-04T09:25:15;99389.28;;;9.10;100.00
29467;BME280;60968;37.490;-122.288;2023-02-04T09:28:16;99393.63;;;9.12;100.00
29467;BME280;60968;37.490;-122.288;2023-02-04T09:31:17;99404.88;;;9.14;100.00
29467;BME280;60968;37.490;-122.288;2023-02-04T09:34:18;99393.63;;;9.12;100.00
29467;BME280;60968;37.490;-122.288;2023-02-04T09:37:19;99391.91;;;9.07;100.00
29467;BME280;60968;37.490;-122.288;2023-02-04T09:40:20;99386.72;;;9.04;100.00
29467;BME280;60968;37.490;-122.288;2023-02-04T09:43:23;99381.50;;;9.03;100.00
29467;BME280;60968;37.490;-122.288;2023-02-04T09:46:26;99381.50;;;9.01;100.00
29467;BME280;60968;37.490;-122.288;2023-02-04T09:49:28;99385.84;;;8.99;100.00
29467;BME280;60968;37.490;-122.288;2023-02-04T09:52:29;99386.72;;;8.97;100.00
29467;BME280;60968;37.490;-122.288;2023-02-04T09:55:33;99383.25;;;8.96;100.00
29467;BME280;60968;37.490;-122.288;2023-02-04T09:58:35;99379.78;;;8.96;100.00
29467;BME280;60968;37.490;-122.288;2023-02-04T10:01:36;99369.41;;;9.00;100.00
29467;BME280;60968;37.490;-122.288;2023-02-04T10:04:37;99371.13;;;8.98;100.00
29467;BME280;60968;37.490;-122.288;2023-02-04T10:07:37;99372.88;;;8.98;100.00
29467;BME280;60968;37.490;-122.288;2023-02-04T10:10:38;99365.06;;;8.96;100.00
29467;BME280;60968;37.490;-122.288;2023-02-04T10:13:44;99358.13;;;8.97;100.00
29467;BME280;60968;37.490;-122.288;2023-02-04T10:16:53;99364.19;;;8.94;100.00
29467;BME280;60968;37.490;-122.288;2023-02-04T10:19:55;99366.78;;;8.94;100.00
29467;BME280;60968;37.490;-122.288;2023-02-04T10:22:56;99367.69;;;8.93;100.00
29467;BME280;60968;37.490;-122.288;2023-02-04T10:25:57;99352.09;;;8.93;100.00
29467;BME280;60968;37.490;-122.288;2023-02-04T10:29:16;99352.91;;;9.00;100.00
29467;BME280;60968;37.490;-122.288;2023-02-04T10:32:31;99346.88;;;8.93;100.00
29467;BME280;60968;37.490;-122.288;2023-02-04T10:35:46;99346.88;;;8.96;100.00
29467;BME280;60968;37.490;-122.288;2023-02-04T10:39:27;99348.63;;;8.91;100.00
29467;BME280;60968;37.490;-122.288;2023-02-04T10:42:29;99337.34;;;8.87;100.00
29467;BME280;60968;37.490;-122.288;2023-02-04T10:45:31;99351.22;;;8.86;100.00
29467;BME280;60968;37.490;-122.288;2023-02-04T10:48:40;99357.28;;;8.84;100.00
29467;BME280;60968;37.490;-122.288;2023-02-04T10:51:41;99353.84;;;8.83;100.00
29467;BME280;60968;37.490;-122.288;2023-02-04T10:54:42;99350.34;;;8.83;100.00
29467;BME280;60968;37.490;-122.288;2023-02-04T10:57:46;99350.34;;;8.83;100.00
29467;BME280;60968;37.490;-122.288;2023-02-04T11:00:48;99346.03;;;8.80;100.00
29467;BME280;60968;37.490;-122.288;2023-02-04T11:03:49;99344.28;;;8.84;100.00
29467;BME280;60968;37.490;-122.288;2023-02-04T11:06:50;99342.56;;;8.83;100.00
29467;BME280;60968;37.490;-122.288;2023-02-04T11:09:51;99352.09;;;8.81;100.00
29467;BME280;60968;37.490;-122.288;2023-02-04T11:16:31;99348.63;;;8.85;100.00
29467;BME280;60968;37.490;-122.288;2023-02-04T11:19:37;99332.16;;;8.84;100.00
29467;BME280;60968;37.490;-122.288;2023-02-04T11:22:43;99339.97;;;8.89;100.00
29467;BME280;60968;37.490;-122.288;2023-02-04T11:25:45;99334.75;;;8.86;100.00
29467;BME280;60968;37.490;-122.288;2023-02-04T11:28:54;99336.50;;;8.87;100.00
29467;BME280;60968;37.490;-122.288;2023-02-04T11:31:58;99333.03;;;8.85;100.00
29467;BME280;60968;37.490;-122.288;2023-02-04T11:38:27;99318.34;;;8.78;100.00
29467;BME280;60968;37.490;-122.288;2023-02-04T11:41:30;99314.88;;;8.69;100.00
29467;BME280;60968;37.490;-122.288;2023-02-04T11:44:32;99318.34;;;8.70;100.00
29467;BME280;60968;37.490;-122.288;2023-02-04T11:47:36;99320.94;;;8.65;100.00
29467;BME280;60968;37.490;-122.288;2023-02-04T11:50:37;99324.44;;;8.58;100.00
29467;BME280;60968;37.490;-122.288;2023-02-04T11:53:38;99314.00;;;8.67;100.00
29467;BME280;60968;37.490;-122.288;2023-02-04T11:56:39;99314.00;;;8.69;100.00
29467;BME280;60968;37.490;-122.288;2023-02-04T11:59:40;99306.22;;;8.66;100.00
29467;BME280;60968;37.490;-122.288;2023-02-04T12:02:47;99306.22;;;8.73;100.00
29467;BME280;60968;37.490;-122.288;2023-02-04T12:05:51;99308.81;;;8.77;100.00
29467;BME280;60968;37.490;-122.288;2023-02-04T12:09:06;99302.75;;;8.71;100.00
29467;BME280;60968;37.490;-122.288;2023-02-04T12:12:07;99307.91;;;8.76;100.00
29467;BME280;60968;37.490;-122.288;2023-02-04T12:15:14;99312.25;;;8.79;100.00
29467;BME280;60968;37.490;-122.288;2023-02-04T12:18:17;99313.13;;;8.79;100.00
29467;BME280;60968;37.490;-122.288;2023-02-04T12:21:18;99313.13;;;8.73;100.00
29467;BME280;60968;37.490;-122.288;2023-02-04T12:24:19;99304.47;;;8.71;100.00
29467;BME280;60968;37.490;-122.288;2023-02-04T12:31:17;99298.41;;;8.67;100.00
29467;BME280;60968;37.490;-122.288;2023-02-04T12:34:18;99301.00;;;8.70;100.00
29467;BME280;60968;37.490;-122.288;2023-02-04T12:37:19;99300.13;;;8.74;100.00
29467;BME280;60968;37.490;-122.288;2023-02-04T12:40:21;99294.94;;;8.73;100.00
29467;BME280;60968;37.490;-122.288;2023-02-04T12:43:22;99286.31;;;8.69;100.00
29467;BME280;60968;37.490;-122.288;2023-02-04T12:46:23;99288.00;;;8.70;100.00
29467;BME280;60968;37.490;-122.288;2023-02-04T12:49:23;99288.03;;;8.64;100.00
29467;BME280;60968;37.490;-122.288;2023-02-04T12:52:25;99278.53;;;8.68;100.00
29467;BME280;60968;37.490;-122.288;2023-02-04T12:55:27;99282.84;;;8.67;100.00
29467;BME280;60968;37.490;-122.288;2023-02-04T12:58:28;99290.66;;;8.61;100.00
29467;BME280;60968;37.490;-122.288;2023-02-04T13:01:29;99277.66;;;8.63;100.00
29467;BME280;60968;37.490;-122.288;2023-02-04T13:04:30;99272.44;;;8.66;100.00
29467;BME280;60968;37.490;-122.288;2023-02-04T13:07:31;99271.59;;;8.67;100.00
29467;BME280;60968;37.490;-122.288;2023-02-04T13:10:32;99267.25;;;8.67;100.00
29467;BME280;60968;37.490;-122.288;2023-02-04T13:13:33;99269.00;;;8.65;100.00
29467;BME280;60968;37.490;-122.288;2023-02-04T13:16:33;99263.78;;;8.59;100.00
29467;BME280;60968;37.490;-122.288;2023-02-04T13:19:36;99264.69;;;8.58;100.00
29467;BME280;60968;37.490;-122.288;2023-02-04T13:22:37;99263.81;;;8.64;100.00
29467;BME280;60968;37.490;-122.288;2023-02-04T13:25:38;99256.84;;;8.72;100.00
29467;BME280;60968;37.490;-122.288;2023-02-04T13:28:39;99262.06;;;8.73;100.00
29467;BME280;60968;37.490;-122.288;2023-02-04T13:31:39;99270.69;;;8.75;100.00
29467;BME280;60968;37.490;-122.288;2023-02-04T13:34:41;99271.53;;;8.76;100.00
29467;BME280;60968;37.490;-122.288;2023-02-04T13:37:42;99258.56;;;8.76;100.00
29467;BME280;60968;37.490;-122.288;2023-02-04T13:40:44;99267.22;;;8.81;100.00
29467;BME280;60968;37.490;-122.288;2023-02-04T13:43:45;99268.94;;;8.84;100.00
29467;BME280;60968;37.490;-122.288;2023-02-04T13:46:47;99268.94;;;8.84;100.00
29467;BME280;60968;37.490;-122.288;2023-02-04T13:49:48;99262.88;;;8.80;100.00
29467;BME280;60968;37.490;-122.288;2023-02-04T13:52:49;99249.88;;;8.82;100.00
29467;BME280;60968;37.490;-122.288;2023-02-04T13:55:50;99263.75;;;8.81;100.00
29467;BME280;60968;37.490;-122.288;2023-02-04T13:58:51;99255.97;;;8.82;100.00
29467;BME280;60968;37.490;-122.288;2023-02-04T14:01:52;99259.41;;;8.83;100.00
29467;BME280;60968;37.490;-122.288;2023-02-04T14:04:52;99259.41;;;8.81;100.00
29467;BME280;60968;37.490;-122.288;2023-02-04T14:07:53;99258.56;;;8.84;100.00
29467;BME280;60968;37.490;-122.288;2023-02-04T14:10:54;99257.69;;;8.83;100.00
29467;BME280;60968;37.490;-122.288;2023-02-04T14:13:55;99265.47;;;8.88;100.00
29467;BME280;60968;37.490;-122.288;2023-02-04T14:16:59;99265.47;;;8.86;100.00
29467;BME280;60968;37.490;-122.288;2023-02-04T14:20:00;99255.09;;;8.85;100.00
29467;BME280;60968;37.490;-122.288;2023-02-04T14:23:01;99262.00;;;8.83;100.00
29467;BME280;60968;37.490;-122.288;2023-02-04T14:26:02;99264.63;;;8.81;100.00
29467;BME280;60968;37.490;-122.288;2023-02-04T14:29:03;99255.09;;;8.79;100.00
29467;BME280;60968;37.490;-122.288;2023-02-04T14:32:04;99257.66;;;8.82;100.00
29467;BME280;60968;37.490;-122.288;2023-02-04T14:35:05;99258.56;;;8.84;100.00
29467;BME280;60968;37.490;-122.288;2023-02-04T14:38:06;99257.69;;;8.80;100.00
29467;BME280;60968;37.490;-122.288;2023-02-04T14:41:07;99257.66;;;8.82;100.00
29467;BME280;60968;37.490;-122.288;2023-02-04T14:44:08;99258.56;;;8.84;100.00
29467;BME280;60968;37.490;-122.288;2023-02-04T14:47:09;99248.16;;;8.82;100.00
29467;BME280;60968;37.490;-122.288;2023-02-04T14:50:14;99245.56;;;8.84;100.00
29467;BME280;60968;37.490;-122.288;2023-02-04T14:53:15;99249.00;;;8.84;100.00
29467;BME280;60968;37.490;-122.288;2023-02-04T14:56:16;99263.75;;;8.81;100.00
29467;BME280;60968;37.490;-122.288;2023-02-04T14:59:17;99264.63;;;8.81;100.00
29467;BME280;60968;37.490;-122.288;2023-02-04T15:02:18;99250.75;;;8.84;100.00
29467;BME280;60968;37.490;-122.288;2023-02-04T15:05:19;99262.88;;;8.86;100.00
29467;BME280;60968;37.490;-122.288;2023-02-04T15:08:20;99247.31;;;8.83;100.00
29467;BME280;60968;37.490;-122.288;2023-02-04T15:11:22;99260.28;;;8.80;100.00
29467;BME280;60968;37.490;-122.288;2023-02-04T15:14:23;99266.38;;;8.78;100.00
29467;BME280;60968;37.490;-122.288;2023-02-04T15:17:23;99258.56;;;8.74;100.00
29467;BME280;60968;37.490;-122.288;2023-02-04T15:20:24;99249.91;;;8.77;100.00
29467;BME280;60968;37.490;-122.288;2023-02-04T15:23:25;99252.47;;;8.82;100.00
29467;BME280;60968;37.490;-122.288;2023-02-04T15:26:26;99245.56;;;8.76;100.00
29467;BME280;60968;37.490;-122.288;2023-02-04T15:29:27;99243.84;;;8.80;100.00
29467;BME280;60968;37.490;-122.288;2023-02-04T15:32:28;99242.09;;;8.79;100.00
29467;BME280;60968;37.490;-122.288;2023-02-04T15:35:29;99239.50;;;8.85;100.00
29467;BME280;60968;37.490;-122.288;2023-02-04T15:38:30;99232.53;;;8.87;100.00
29467;BME280;60968;37.490;-122.288;2023-02-04T15:41:30;99230.81;;;8.87;100.00